Terminal Aerodrome Forecast
Issued by NWS Tuscon, AZ

Home | Current Version | Previous Version | Text Only | Print | Product List | Glossary On
Versions: 1 2 3 4 5 6 7 8 9 10 11 12 13 14 15 16 17
000
FTUS45 KTWC 190300 AAB
TAFTUS
TAF AMD
KTUS 190334Z 1904/1924 13009KT P6SM BKN100 BKN200
     FM192000 25010G18KT P6SM VCSH BKN080 BKN200=

USA.gov is the U.S. government's official web portal to all federal, state and local government web resources and services.